sensor_id;sensor_type;location;lat;lon;timestamp;temperature;humidity
52531;DHT22;38441;52.894;6.040;2022-07-18T00:02:15;18.80;99.90
52531;DHT22;38441;52.894;6.040;2022-07-18T00:04:41;17.60;99.90
52531;DHT22;38441;52.894;6.040;2022-07-18T00:07:07;17.20;99.90
52531;DHT22;38441;52.894;6.040;2022-07-18T00:09:36;19.00;99.90
52531;DHT22;38441;52.894;6.040;2022-07-18T00:12:03;17.20;99.90
52531;DHT22;38441;52.894;6.040;2022-07-18T00:14:28;17.00;99.90
52531;DHT22;38441;52.894;6.040;2022-07-18T00:16:54;17.50;99.90
52531;DHT22;38441;52.894;6.040;2022-07-18T00:19:20;16.90;99.90
52531;DHT22;38441;52.894;6.040;2022-07-18T00:21:45;17.20;99.90
52531;DHT22;38441;52.894;6.040;2022-07-18T00:24:11;16.90;99.90
52531;DHT22;38441;52.894;6.040;2022-07-18T00:26:37;17.00;99.90
52531;DHT22;38441;52.894;6.040;2022-07-18T00:29:03;16.80;99.90
52531;DHT22;38441;52.894;6.040;2022-07-18T00:31:29;16.70;99.90
52531;DHT22;38441;52.894;6.040;2022-07-18T00:33:54;17.30;99.90
52531;DHT22;38441;52.894;6.040;2022-07-18T00:36:20;16.60;99.90
52531;DHT22;38441;52.894;6.040;2022-07-18T00:38:45;18.70;99.90
52531;DHT22;38441;52.894;6.040;2022-07-18T00:41:14;16.70;99.90
52531;DHT22;38441;52.894;6.040;2022-07-18T00:43:41;17.80;99.90
52531;DHT22;38441;52.894;6.040;2022-07-18T00:46:07;17.60;99.90
52531;DHT22;38441;52.894;6.040;2022-07-18T00:48:32;15.30;99.90
52531;DHT22;38441;52.894;6.040;2022-07-18T00:50:58;16.70;99.90
52531;DHT22;38441;52.894;6.040;2022-07-18T00:53:24;18.00;99.90
52531;DHT22;38441;52.894;6.040;2022-07-18T00:55:50;16.80;99.90
52531;DHT22;38441;52.894;6.040;2022-07-18T00:58:17;16.50;99.90
52531;DHT22;38441;52.894;6.040;2022-07-18T01:00:42;16.50;99.90
52531;DHT22;38441;52.894;6.040;2022-07-18T01:03:27;16.50;99.90
52531;DHT22;38441;52.894;6.040;2022-07-18T01:05:53;17.50;99.90
52531;DHT22;38441;52.894;6.040;2022-07-18T01:08:18;16.40;99.90
52531;DHT22;38441;52.894;6.040;2022-07-18T01:10:44;18.20;99.90
52531;DHT22;38441;52.894;6.040;2022-07-18T01:13:10;16.60;99.90
52531;DHT22;38441;52.894;6.040;2022-07-18T01:15:36;16.30;99.90
52531;DHT22;38441;52.894;6.040;2022-07-18T01:18:04;16.10;99.90
52531;DHT22;38441;52.894;6.040;2022-07-18T01:20:31;16.60;99.90
52531;DHT22;38441;52.894;6.040;2022-07-18T01:22:58;17.00;99.90
52531;DHT22;38441;52.894;6.040;2022-07-18T01:25:24;16.30;99.90
52531;DHT22;38441;52.894;6.040;2022-07-18T01:27:49;16.30;99.90
52531;DHT22;38441;52.894;6.040;2022-07-18T01:30:15;16.10;99.90
52531;DHT22;38441;52.894;6.040;2022-07-18T01:32:42;16.20;99.90
52531;DHT22;38441;52.894;6.040;2022-07-18T01:35:08;16.30;99.90
52531;DHT22;38441;52.894;6.040;2022-07-18T01:40:00;16.20;99.90
52531;DHT22;38441;52.894;6.040;2022-07-18T01:42:26;18.80;99.90
52531;DHT22;38441;52.894;6.040;2022-07-18T01:44:51;16.10;99.90
52531;DHT22;38441;52.894;6.040;2022-07-18T01:47:17;16.10;99.90
52531;DHT22;38441;52.894;6.040;2022-07-18T01:49:43;16.10;99.90
52531;DHT22;38441;52.894;6.040;2022-07-18T01:52:09;16.40;99.90
52531;DHT22;38441;52.894;6.040;2022-07-18T01:54:36;15.90;99.90
52531;DHT22;38441;52.894;6.040;2022-07-18T01:57:05;15.90;99.90
52531;DHT22;38441;52.894;6.040;2022-07-18T02:01:57;16.00;99.90
52531;DHT22;38441;52.894;6.040;2022-07-18T02:04:22;15.90;99.90
52531;DHT22;38441;52.894;6.040;2022-07-18T02:07:11;16.80;99.90
52531;DHT22;38441;52.894;6.040;2022-07-18T02:09:37;17.00;99.90
52531;DHT22;38441;52.894;6.040;2022-07-18T02:12:03;16.00;99.90
52531;DHT22;38441;52.894;6.040;2022-07-18T02:14:28;15.90;99.90
52531;DHT22;38441;52.894;6.040;2022-07-18T02:16:54;15.90;99.90
52531;DHT22;38441;52.894;6.040;2022-07-18T02:19:19;15.80;99.90
52531;DHT22;38441;52.894;6.040;2022-07-18T02:26:37;16.00;99.90
52531;DHT22;38441;52.894;6.040;2022-07-18T02:29:03;16.30;99.90
52531;DHT22;38441;52.894;6.040;2022-07-18T02:31:28;16.90;99.90
52531;DHT22;38441;52.894;6.040;2022-07-18T02:33:54;15.70;99.90
52531;DHT22;38441;52.894;6.040;2022-07-18T02:38:46;15.60;99.90
52531;DHT22;38441;52.894;6.040;2022-07-18T02:41:11;15.70;99.90
52531;DHT22;38441;52.894;6.040;2022-07-18T02:43:37;15.40;99.90
52531;DHT22;38441;52.894;6.040;2022-07-18T02:46:03;15.60;99.90
52531;DHT22;38441;52.894;6.040;2022-07-18T02:50:55;15.70;99.90
52531;DHT22;38441;52.894;6.040;2022-07-18T02:53:20;15.60;99.90
52531;DHT22;38441;52.894;6.040;2022-07-18T02:55:49;15.50;99.90
52531;DHT22;38441;52.894;6.040;2022-07-18T02:58:16;15.60;99.90
52531;DHT22;38441;52.894;6.040;2022-07-18T03:00:41;16.70;99.90
52531;DHT22;38441;52.894;6.040;2022-07-18T03:03:07;15.50;99.90
52531;DHT22;38441;52.894;6.040;2022-07-18T03:10:25;15.50;99.90
52531;DHT22;38441;52.894;6.040;2022-07-18T03:15:16;15.40;99.90
52531;DHT22;38441;52.894;6.040;2022-07-18T03:17:42;16.40;99.90
52531;DHT22;38441;52.894;6.040;2022-07-18T03:20:08;15.40;99.90
52531;DHT22;38441;52.894;6.040;2022-07-18T03:22:34;15.40;99.90
52531;DHT22;38441;52.894;6.040;2022-07-18T03:24:59;15.60;99.90
52531;DHT22;38441;52.894;6.040;2022-07-18T03:27:25;15.40;99.90
52531;DHT22;38441;52.894;6.040;2022-07-18T03:32:17;15.40;99.90
52531;DHT22;38441;52.894;6.040;2022-07-18T03:34:42;15.40;99.90
52531;DHT22;38441;52.894;6.040;2022-07-18T03:37:08;15.20;99.90
52531;DHT22;38441;52.894;6.040;2022-07-18T03:39:34;15.10;99.90
52531;DHT22;38441;52.894;6.040;2022-07-18T03:41:59;15.10;99.90
52531;DHT22;38441;52.894;6.040;2022-07-18T03:44:25;15.20;99.90
52531;DHT22;38441;52.894;6.040;2022-07-18T03:46:51;15.20;99.90
52531;DHT22;38441;52.894;6.040;2022-07-18T03:49:19;15.10;99.90
52531;DHT22;38441;52.894;6.040;2022-07-18T03:51:45;15.20;99.90
52531;DHT22;38441;52.894;6.040;2022-07-18T03:54:10;15.10;99.90
52531;DHT22;38441;52.894;6.040;2022-07-18T03:56:37;15.20;99.90
52531;DHT22;38441;52.894;6.040;2022-07-18T03:59:03;15.20;99.90
52531;DHT22;38441;52.894;6.040;2022-07-18T04:01:29;15.30;99.90
52531;DHT22;38441;52.894;6.040;2022-07-18T04:03:54;15.30;99.90
52531;DHT22;38441;52.894;6.040;2022-07-18T04:06:20;15.30;99.90
52531;DHT22;38441;52.894;6.040;2022-07-18T04:08:46;15.20;99.90
52531;DHT22;38441;52.894;6.040;2022-07-18T04:11:11;15.20;99.90
52531;DHT22;38441;52.894;6.040;2022-07-18T04:13:37;15.00;99.90
52531;DHT22;38441;52.894;6.040;2022-07-18T04:16:03;15.10;99.90
52531;DHT22;38441;52.894;6.040;2022-07-18T04:18:29;15.20;99.90
52531;DHT22;38441;52.894;6.040;2022-07-18T04:20:54;15.30;99.90
52531;DHT22;38441;52.894;6.040;2022-07-18T04:23:20;15.20;99.90
52531;DHT22;38441;52.894;6.040;2022-07-18T04:25:46;15.20;99.90
52531;DHT22;38441;52.894;6.040;2022-07-18T04:28:12;15.20;99.90
52531;DHT22;38441;52.894;6.040;2022-07-18T04:30:39;15.20;99.90
52531;DHT22;38441;52.894;6.040;2022-07-18T04:33:06;15.30;99.90
52531;DHT22;38441;52.894;6.040;2022-07-18T04:35:33;15.40;99.90
52531;DHT22;38441;52.894;6.040;2022-07-18T04:38:01;15.30;99.90
52531;DHT22;38441;52.894;6.040;2022-07-18T04:40:27;15.30;99.90
52531;DHT22;38441;52.894;6.040;2022-07-18T04:42:53;15.40;99.90
52531;DHT22;38441;52.894;6.040;2022-07-18T04:45:18;15.40;99.90
52531;DHT22;38441;52.894;6.040;2022-07-18T04:47:50;15.30;99.90
52531;DHT22;38441;52.894;6.040;2022-07-18T04:50:16;15.50;99.90
52531;DHT22;38441;52.894;6.040;2022-07-18T04:52:44;15.50;99.90
52531;DHT22;38441;52.894;6.040;2022-07-18T04:55:12;15.40;99.90
52531;DHT22;38441;52.894;6.040;2022-07-18T04:57:38;15.50;99.90
52531;DHT22;38441;52.894;6.040;2022-07-18T05:00:15;15.50;99.90
52531;DHT22;38441;52.894;6.040;2022-07-18T05:02:43;15.60;99.90
52531;DHT22;38441;52.894;6.040;2022-07-18T05:05:10;15.70;99.90
52531;DHT22;38441;52.894;6.040;2022-07-18T05:07:37;15.60;99.90
52531;DHT22;38441;52.894;6.040;2022-07-18T05:10:03;15.70;99.90
52531;DHT22;38441;52.894;6.040;2022-07-18T05:12:33;15.70;99.90
52531;DHT22;38441;52.894;6.040;2022-07-18T05:14:59;15.70;99.90
52531;DHT22;38441;52.894;6.040;2022-07-18T05:17:24;15.80;99.90
52531;DHT22;38441;52.894;6.040;2022-07-18T05:19:50;15.90;99.90
52531;DHT22;38441;52.894;6.040;2022-07-18T05:22:16;16.00;99.90
52531;DHT22;38441;52.894;6.040;2022-07-18T05:24:41;16.00;99.90
52531;DHT22;38441;52.894;6.040;2022-07-18T05:27:07;15.90;99.90
52531;DHT22;38441;52.894;6.040;2022-07-18T05:29:32;16.00;99.90
52531;DHT22;38441;52.894;6.040;2022-07-18T05:31:58;16.20;99.90
52531;DHT22;38441;52.894;6.040;2022-07-18T05:34:24;16.10;99.90
52531;DHT22;38441;52.894;6.040;2022-07-18T05:36:50;16.00;99.90
52531;DHT22;38441;52.894;6.040;2022-07-18T05:39:15;16.10;99.90
52531;DHT22;38441;52.894;6.040;2022-07-18T05:41:41;16.30;99.90
52531;DHT22;38441;52.894;6.040;2022-07-18T05:44:07;16.30;99.90
52531;DHT22;38441;52.894;6.040;2022-07-18T05:46:32;16.30;99.90
52531;DHT22;38441;52.894;6.040;2022-07-18T05:48:58;16.40;99.90
52531;DHT22;38441;52.894;6.040;2022-07-18T05:51:23;16.40;99.90
52531;DHT22;38441;52.894;6.040;2022-07-18T05:53:49;16.60;99.90
52531;DHT22;38441;52.894;6.040;2022-07-18T05:56:15;16.50;99.90
52531;DHT22;38441;52.894;6.040;2022-07-18T05:58:41;16.60;99.90
52531;DHT22;38441;52.894;6.040;2022-07-18T06:01:07;16.60;99.90
52531;DHT22;38441;52.894;6.040;2022-07-18T06:03:33;16.60;99.90
52531;DHT22;38441;52.894;6.040;2022-07-18T06:05:58;16.80;99.90
52531;DHT22;38441;52.894;6.040;2022-07-18T06:08:39;16.90;99.90
52531;DHT22;38441;52.894;6.040;2022-07-18T06:11:11;16.80;99.90
52531;DHT22;38441;52.894;6.040;2022-07-18T06:13:39;16.90;99.90
52531;DHT22;38441;52.894;6.040;2022-07-18T06:16:06;17.00;99.90
52531;DHT22;38441;52.894;6.040;2022-07-18T06:18:32;17.10;99.90
52531;DHT22;38441;52.894;6.040;2022-07-18T06:21:03;17.20;99.90
52531;DHT22;38441;52.894;6.040;2022-07-18T06:23:29;17.10;99.90
52531;DHT22;38441;52.894;6.040;2022-07-18T06:25:55;17.20;99.90
52531;DHT22;38441;52.894;6.040;2022-07-18T06:28:21;17.40;99.90
52531;DHT22;38441;52.894;6.040;2022-07-18T06:30:47;17.60;99.90
52531;DHT22;38441;52.894;6.040;2022-07-18T06:33:12;17.40;99.90
52531;DHT22;38441;52.894;6.040;2022-07-18T06:35:39;17.60;99.90
52531;DHT22;38441;52.894;6.040;2022-07-18T06:38:05;17.80;99.90
52531;DHT22;38441;52.894;6.040;2022-07-18T06:40:34;17.80;99.90
52531;DHT22;38441;52.894;6.040;2022-07-18T06:42:59;17.70;99.90
52531;DHT22;38441;52.894;6.040;2022-07-18T06:45:25;17.90;99.90
52531;DHT22;38441;52.894;6.040;2022-07-18T06:47:50;18.00;99.90
52531;DHT22;38441;52.894;6.040;2022-07-18T06:50:16;18.00;99.90
52531;DHT22;38441;52.894;6.040;2022-07-18T06:52:43;18.30;99.90
52531;DHT22;38441;52.894;6.040;2022-07-18T06:55:10;18.30;99.90
52531;DHT22;38441;52.894;6.040;2022-07-18T06:57:37;18.30;99.90
52531;DHT22;38441;52.894;6.040;2022-07-18T07:00:04;18.40;99.90
52531;DHT22;38441;52.894;6.040;2022-07-18T07:02:30;18.60;99.90
52531;DHT22;38441;52.894;6.040;2022-07-18T07:04:55;18.60;99.90
52531;DHT22;38441;52.894;6.040;2022-07-18T07:07:21;18.80;99.90
52531;DHT22;38441;52.894;6.040;2022-07-18T07:09:46;18.60;99.90
52531;DHT22;38441;52.894;6.040;2022-07-18T07:12:12;18.90;99.90
52531;DHT22;38441;52.894;6.040;2022-07-18T07:14:38;19.00;99.90
52531;DHT22;38441;52.894;6.040;2022-07-18T07:17:04;19.10;99.90
52531;DHT22;38441;52.894;6.040;2022-07-18T07:19:30;19.20;99.90
52531;DHT22;38441;52.894;6.040;2022-07-18T07:21:55;19.20;99.90
52531;DHT22;38441;52.894;6.040;2022-07-18T07:24:21;19.50;99.90
52531;DHT22;38441;52.894;6.040;2022-07-18T07:26:47;19.50;99.90
52531;DHT22;38441;52.894;6.040;2022-07-18T07:29:13;19.60;99.90
52531;DHT22;38441;52.894;6.040;2022-07-18T07:31:40;19.80;99.90
52531;DHT22;38441;52.894;6.040;2022-07-18T07:34:06;20.00;99.90
52531;DHT22;38441;52.894;6.040;2022-07-18T07:36:31;20.00;99.90
52531;DHT22;38441;52.894;6.040;2022-07-18T07:38:57;20.00;99.90
52531;DHT22;38441;52.894;6.040;2022-07-18T07:41:23;20.00;99.90
52531;DHT22;38441;52.894;6.040;2022-07-18T07:43:48;20.30;99.90
52531;DHT22;38441;52.894;6.040;2022-07-18T07:46:14;20.20;99.90
52531;DHT22;38441;52.894;6.040;2022-07-18T07:48:40;20.40;99.90
52531;DHT22;38441;52.894;6.040;2022-07-18T07:51:06;20.40;99.90
52531;DHT22;38441;52.894;6.040;2022-07-18T07:53:31;20.60;99.90
52531;DHT22;38441;52.894;6.040;2022-07-18T07:55:57;20.60;99.90
52531;DHT22;38441;52.894;6.040;2022-07-18T07:58:23;20.70;99.90
52531;DHT22;38441;52.894;6.040;2022-07-18T08:00:49;20.80;99.90
52531;DHT22;38441;52.894;6.040;2022-07-18T08:03:14;20.90;99.90
52531;DHT22;38441;52.894;6.040;2022-07-18T08:05:46;21.20;99.90
52531;DHT22;38441;52.894;6.040;2022-07-18T08:08:12;21.40;99.90
52531;DHT22;38441;52.894;6.040;2022-07-18T08:10:37;21.70;99.90
52531;DHT22;38441;52.894;6.040;2022-07-18T08:13:03;21.70;99.90
52531;DHT22;38441;52.894;6.040;2022-07-18T08:15:29;21.90;99.90
52531;DHT22;38441;52.894;6.040;2022-07-18T08:17:55;22.20;99.90
52531;DHT22;38441;52.894;6.040;2022-07-18T08:20:21;22.10;99.90
52531;DHT22;38441;52.894;6.040;2022-07-18T08:23:00;22.40;99.90
52531;DHT22;38441;52.894;6.040;2022-07-18T08:25:27;22.70;99.90
52531;DHT22;38441;52.894;6.040;2022-07-18T08:27:53;22.60;99.90
52531;DHT22;38441;52.894;6.040;2022-07-18T08:30:19;22.60;99.90
52531;DHT22;38441;52.894;6.040;2022-07-18T08:32:45;23.00;99.90
52531;DHT22;38441;52.894;6.040;2022-07-18T08:35:11;23.00;99.90
52531;DHT22;38441;52.894;6.040;2022-07-18T08:37:36;23.30;99.90
52531;DHT22;38441;52.894;6.040;2022-07-18T08:40:02;23.30;99.90
52531;DHT22;38441;52.894;6.040;2022-07-18T08:42:28;23.50;99.90
52531;DHT22;38441;52.894;6.040;2022-07-18T08:44:55;23.50;99.90
52531;DHT22;38441;52.894;6.040;2022-07-18T08:47:22;23.50;99.90
52531;DHT22;38441;52.894;6.040;2022-07-18T08:49:49;23.70;99.90
52531;DHT22;38441;52.894;6.040;2022-07-18T08:52:15;24.00;99.90
52531;DHT22;38441;52.894;6.040;2022-07-18T08:54:42;24.10;99.90
52531;DHT22;38441;52.894;6.040;2022-07-18T08:57:07;24.30;99.90
52531;DHT22;38441;52.894;6.040;2022-07-18T08:59:33;25.90;99.90
52531;DHT22;38441;52.894;6.040;2022-07-18T09:01:59;26.80;99.90
52531;DHT22;38441;52.894;6.040;2022-07-18T09:06:59;24.90;99.90
52531;DHT22;38441;52.894;6.040;2022-07-18T09:09:25;27.50;99.90
52531;DHT22;38441;52.894;6.040;2022-07-18T09:11:55;26.40;99.90
52531;DHT22;38441;52.894;6.040;2022-07-18T09:14:35;25.30;99.90
52531;DHT22;38441;52.894;6.040;2022-07-18T09:17:16;25.40;99.90
52531;DHT22;38441;52.894;6.040;2022-07-18T09:19:55;25.60;99.90
52531;DHT22;38441;52.894;6.040;2022-07-18T09:22:22;25.30;99.90
52531;DHT22;38441;52.894;6.040;2022-07-18T09:25:03;25.40;99.90
52531;DHT22;38441;52.894;6.040;2022-07-18T09:32:49;25.60;99.90
52531;DHT22;38441;52.894;6.040;2022-07-18T09:35:27;25.80;99.90
52531;DHT22;38441;52.894;6.040;2022-07-18T09:37:59;26.80;99.90
52531;DHT22;38441;52.894;6.040;2022-07-18T09:40:33;26.20;99.50
52531;DHT22;38441;52.894;6.040;2022-07-18T09:43:04;26.30;99.50
52531;DHT22;38441;52.894;6.040;2022-07-18T09:45:33;26.40;99.60
52531;DHT22;38441;52.894;6.040;2022-07-18T09:48:13;28.50;99.90
52531;DHT22;38441;52.894;6.040;2022-07-18T09:50:50;27.50;99.90
52531;DHT22;38441;52.894;6.040;2022-07-18T09:55:50;28.90;99.90
52531;DHT22;38441;52.894;6.040;2022-07-18T09:58:20;29.50;99.40
52531;DHT22;38441;52.894;6.040;2022-07-18T10:00:47;26.90;98.40
52531;DHT22;38441;52.894;6.040;2022-07-18T10:03:13;29.00;99.60
52531;DHT22;38441;52.894;6.040;2022-07-18T10:05:39;27.10;98.90
52531;DHT22;38441;52.894;6.040;2022-07-18T10:08:11;27.10;97.70
52531;DHT22;38441;52.894;6.040;2022-07-18T10:10:39;29.10;97.70
52531;DHT22;38441;52.894;6.040;2022-07-18T10:13:06;27.20;96.40
52531;DHT22;38441;52.894;6.040;2022-07-18T10:15:50;27.60;96.30
52531;DHT22;38441;52.894;6.040;2022-07-18T10:18:21;27.70;96.60
52531;DHT22;38441;52.894;6.040;2022-07-18T10:20:57;29.80;96.80
52531;DHT22;38441;52.894;6.040;2022-07-18T10:23:31;27.40;95.70
52531;DHT22;38441;52.894;6.040;2022-07-18T10:26:06;29.90;97.20
52531;DHT22;38441;52.894;6.040;2022-07-18T10:31:37;27.10;93.90
52531;DHT22;38441;52.894;6.040;2022-07-18T10:34:12;28.40;95.40
52531;DHT22;38441;52.894;6.040;2022-07-18T10:36:39;26.90;95.80
52531;DHT22;38441;52.894;6.040;2022-07-18T10:39:11;29.60;95.40
52531;DHT22;38441;52.894;6.040;2022-07-18T10:47:16;28.00;93.90
52531;DHT22;38441;52.894;6.040;2022-07-18T10:57:37;30.30;92.40
52531;DHT22;38441;52.894;6.040;2022-07-18T11:00:10;28.20;90.10
52531;DHT22;38441;52.894;6.040;2022-07-18T11:02:42;28.00;89.80
52531;DHT22;38441;52.894;6.040;2022-07-18T11:21:17;28.50;90.20
52531;DHT22;38441;52.894;6.040;2022-07-18T11:23:46;29.40;87.40
52531;DHT22;38441;52.894;6.040;2022-07-18T11:26:20;29.90;89.10
52531;DHT22;38441;52.894;6.040;2022-07-18T11:28:47;31.30;87.80
52531;DHT22;38441;52.894;6.040;2022-07-18T11:31:14;30.60;86.70
52531;DHT22;38441;52.894;6.040;2022-07-18T11:33:47;29.40;86.60
52531;DHT22;38441;52.894;6.040;2022-07-18T11:36:19;31.20;85.50
52531;DHT22;38441;52.894;6.040;2022-07-18T11:38:54;31.50;85.70
52531;DHT22;38441;52.894;6.040;2022-07-18T11:41:21;29.20;84.00
52531;DHT22;38441;52.894;6.040;2022-07-18T11:43:50;32.20;86.20
52531;DHT22;38441;52.894;6.040;2022-07-18T11:46:17;29.10;83.40
52531;DHT22;38441;52.894;6.040;2022-07-18T11:48:50;29.70;83.30
52531;DHT22;38441;52.894;6.040;2022-07-18T11:51:22;30.10;83.60
52531;DHT22;38441;52.894;6.040;2022-07-18T11:53:53;29.70;85.10
52531;DHT22;38441;52.894;6.040;2022-07-18T11:56:19;32.20;82.00
52531;DHT22;38441;52.894;6.040;2022-07-18T11:58:46;30.70;81.40
52531;DHT22;38441;52.894;6.040;2022-07-18T12:01:13;31.70;80.30
52531;DHT22;38441;52.894;6.040;2022-07-18T12:03:47;31.60;81.40
52531;DHT22;38441;52.894;6.040;2022-07-18T12:06:18;31.10;79.80
52531;DHT22;38441;52.894;6.040;2022-07-18T12:08:45;31.30;79.60
52531;DHT22;38441;52.894;6.040;2022-07-18T12:14:12;30.00;75.80
52531;DHT22;38441;52.894;6.040;2022-07-18T12:16:41;30.20;76.70
52531;DHT22;38441;52.894;6.040;2022-07-18T12:19:08;30.10;73.30
52531;DHT22;38441;52.894;6.040;2022-07-18T12:24:32;30.40;73.50
52531;DHT22;38441;52.894;6.040;2022-07-18T12:27:20;29.70;73.60
52531;DHT22;38441;52.894;6.040;2022-07-18T12:32:50;30.10;73.60
52531;DHT22;38441;52.894;6.040;2022-07-18T12:38:13;30.80;77.50
52531;DHT22;38441;52.894;6.040;2022-07-18T12:40:59;29.70;73.10
52531;DHT22;38441;52.894;6.040;2022-07-18T12:43:38;31.00;74.90
52531;DHT22;38441;52.894;6.040;2022-07-18T12:46:07;32.20;79.00
52531;DHT22;38441;52.894;6.040;2022-07-18T12:48:33;29.40;77.40
52531;DHT22;38441;52.894;6.040;2022-07-18T12:51:05;31.00;78.40
52531;DHT22;38441;52.894;6.040;2022-07-18T12:53:36;30.50;78.00
52531;DHT22;38441;52.894;6.040;2022-07-18T12:56:03;29.10;76.40
52531;DHT22;38441;52.894;6.040;2022-07-18T12:58:29;29.20;76.50
52531;DHT22;38441;52.894;6.040;2022-07-18T13:00:55;31.20;80.70
52531;DHT22;38441;52.894;6.040;2022-07-18T13:03:21;28.70;76.70
52531;DHT22;38441;52.894;6.040;2022-07-18T13:05:47;31.10;77.40
52531;DHT22;38441;52.894;6.040;2022-07-18T13:08:13;28.80;76.60
52531;DHT22;38441;52.894;6.040;2022-07-18T13:10:40;31.30;81.00
52531;DHT22;38441;52.894;6.040;2022-07-18T13:13:08;28.40;76.00
52531;DHT22;38441;52.894;6.040;2022-07-18T13:15:34;28.80;76.90
52531;DHT22;38441;52.894;6.040;2022-07-18T13:18:02;29.30;76.50
52531;DHT22;38441;52.894;6.040;2022-07-18T13:20:28;28.40;76.40
52531;DHT22;38441;52.894;6.040;2022-07-18T13:22:56;30.70;78.20
52531;DHT22;38441;52.894;6.040;2022-07-18T13:25:22;30.60;78.30
52531;DHT22;38441;52.894;6.040;2022-07-18T13:27:48;31.20;80.50
52531;DHT22;38441;52.894;6.040;2022-07-18T13:30:14;28.40;81.80
52531;DHT22;38441;52.894;6.040;2022-07-18T13:32:40;28.60;84.10
52531;DHT22;38441;52.894;6.040;2022-07-18T13:35:10;30.20;85.30
52531;DHT22;38441;52.894;6.040;2022-07-18T13:37:36;31.30;86.40
52531;DHT22;38441;52.894;6.040;2022-07-18T13:40:01;31.70;85.60
52531;DHT22;38441;52.894;6.040;2022-07-18T13:42:27;28.50;84.00
52531;DHT22;38441;52.894;6.040;2022-07-18T13:44:52;29.00;84.20
52531;DHT22;38441;52.894;6.040;2022-07-18T13:47:18;30.90;87.80
52531;DHT22;38441;52.894;6.040;2022-07-18T13:49:44;29.20;86.30
52531;DHT22;38441;52.894;6.040;2022-07-18T13:52:10;30.90;84.70
52531;DHT22;38441;52.894;6.040;2022-07-18T13:54:35;30.00;82.60
52531;DHT22;38441;52.894;6.040;2022-07-18T13:57:01;28.90;81.20
52531;DHT22;38441;52.894;6.040;2022-07-18T13:59:26;32.70;82.40
52531;DHT22;38441;52.894;6.040;2022-07-18T14:01:52;31.00;78.30
52531;DHT22;38441;52.894;6.040;2022-07-18T14:04:18;32.10;79.10
52531;DHT22;38441;52.894;6.040;2022-07-18T14:06:45;32.30;79.50
52531;DHT22;38441;52.894;6.040;2022-07-18T14:09:11;30.20;75.20
52531;DHT22;38441;52.894;6.040;2022-07-18T14:11:36;31.10;79.00
52531;DHT22;38441;52.894;6.040;2022-07-18T14:14:03;31.50;78.80
52531;DHT22;38441;52.894;6.040;2022-07-18T14:16:30;32.70;77.50
52531;DHT22;38441;52.894;6.040;2022-07-18T14:18:56;32.50;76.30
52531;DHT22;38441;52.894;6.040;2022-07-18T14:21:22;31.00;74.30
52531;DHT22;38441;52.894;6.040;2022-07-18T14:23:48;32.60;77.40
52531;DHT22;38441;52.894;6.040;2022-07-18T14:26:13;32.80;78.90
52531;DHT22;38441;52.894;6.040;2022-07-18T14:28:39;32.30;75.20
52531;DHT22;38441;52.894;6.040;2022-07-18T14:31:05;30.90;73.50
52531;DHT22;38441;52.894;6.040;2022-07-18T14:33:31;30.90;73.20
52531;DHT22;38441;52.894;6.040;2022-07-18T14:35:56;32.80;75.50
52531;DHT22;38441;52.894;6.040;2022-07-18T14:38:22;33.10;77.80
52531;DHT22;38441;52.894;6.040;2022-07-18T14:40:48;32.70;76.40
52531;DHT22;38441;52.894;6.040;2022-07-18T14:43:13;31.30;74.70
52531;DHT22;38441;52.894;6.040;2022-07-18T14:45:42;32.80;76.90
52531;DHT22;38441;52.894;6.040;2022-07-18T14:48:08;32.90;75.00
52531;DHT22;38441;52.894;6.040;2022-07-18T14:50:33;33.70;78.60
52531;DHT22;38441;52.894;6.040;2022-07-18T14:52:59;32.30;77.20
52531;DHT22;38441;52.894;6.040;2022-07-18T14:55:25;31.00;75.70
52531;DHT22;38441;52.894;6.040;2022-07-18T14:57:51;33.10;77.00
52531;DHT22;38441;52.894;6.040;2022-07-18T15:00:16;31.70;76.60
52531;DHT22;38441;52.894;6.040;2022-07-18T15:02:42;32.40;75.10
52531;DHT22;38441;52.894;6.040;2022-07-18T15:05:08;32.90;74.90
52531;DHT22;38441;52.894;6.040;2022-07-18T15:07:34;31.30;76.30
52531;DHT22;38441;52.894;6.040;2022-07-18T15:10:00;33.50;80.90
52531;DHT22;38441;52.894;6.040;2022-07-18T15:12:26;32.60;77.20
52531;DHT22;38441;52.894;6.040;2022-07-18T15:14:51;32.50;78.60
52531;DHT22;38441;52.894;6.040;2022-07-18T15:17:20;32.50;77.70
52531;DHT22;38441;52.894;6.040;2022-07-18T15:19:47;32.40;79.10
52531;DHT22;38441;52.894;6.040;2022-07-18T15:22:12;30.30;77.90
52531;DHT22;38441;52.894;6.040;2022-07-18T15:24:38;31.90;78.90
52531;DHT22;38441;52.894;6.040;2022-07-18T15:27:04;31.40;78.90
52531;DHT22;38441;52.894;6.040;2022-07-18T15:29:30;30.10;79.30
52531;DHT22;38441;52.894;6.040;2022-07-18T15:31:55;28.80;74.80
52531;DHT22;38441;52.894;6.040;2022-07-18T15:34:21;31.90;79.70
52531;DHT22;38441;52.894;6.040;2022-07-18T15:36:47;33.70;87.20
52531;DHT22;38441;52.894;6.040;2022-07-18T15:39:13;30.50;79.70
52531;DHT22;38441;52.894;6.040;2022-07-18T15:41:38;32.40;81.00
52531;DHT22;38441;52.894;6.040;2022-07-18T15:44:08;31.10;82.40
52531;DHT22;38441;52.894;6.040;2022-07-18T15:46:34;31.70;77.30
52531;DHT22;38441;52.894;6.040;2022-07-18T15:49:00;29.70;77.20
52531;DHT22;38441;52.894;6.040;2022-07-18T15:51:28;29.00;79.10
52531;DHT22;38441;52.894;6.040;2022-07-18T15:53:54;29.50;75.10
52531;DHT22;38441;52.894;6.040;2022-07-18T15:56:19;31.30;78.60
52531;DHT22;38441;52.894;6.040;2022-07-18T15:58:45;32.00;77.90
52531;DHT22;38441;52.894;6.040;2022-07-18T16:01:11;30.50;78.00
52531;DHT22;38441;52.894;6.040;2022-07-18T16:03:37;29.40;79.40
52531;DHT22;38441;52.894;6.040;2022-07-18T16:06:03;32.20;79.90
52531;DHT22;38441;52.894;6.040;2022-07-18T16:08:28;29.30;79.10
52531;DHT22;38441;52.894;6.040;2022-07-18T16:10:54;30.30;81.50
52531;DHT22;38441;52.894;6.040;2022-07-18T16:13:20;31.30;80.20
52531;DHT22;38441;52.894;6.040;2022-07-18T16:15:47;29.00;79.80
52531;DHT22;38441;52.894;6.040;2022-07-18T16:18:13;30.10;78.80
52531;DHT22;38441;52.894;6.040;2022-07-18T16:20:40;28.90;78.10
52531;DHT22;38441;52.894;6.040;2022-07-18T16:23:08;28.30;78.20
52531;DHT22;38441;52.894;6.040;2022-07-18T16:25:34;31.80;81.30
52531;DHT22;38441;52.894;6.040;2022-07-18T16:28:00;29.20;80.70
52531;DHT22;38441;52.894;6.040;2022-07-18T16:30:28;28.80;82.30
52531;DHT22;38441;52.894;6.040;2022-07-18T16:32:54;29.80;80.90
52531;DHT22;38441;52.894;6.040;2022-07-18T16:35:21;28.80;77.40
52531;DHT22;38441;52.894;6.040;2022-07-18T16:37:46;28.70;81.00
52531;DHT22;38441;52.894;6.040;2022-07-18T16:40:14;30.80;80.90
52531;DHT22;38441;52.894;6.040;2022-07-18T16:42:40;28.60;78.40
52531;DHT22;38441;52.894;6.040;2022-07-18T16:45:07;28.40;80.20
52531;DHT22;38441;52.894;6.040;2022-07-18T16:47:34;28.40;78.10
52531;DHT22;38441;52.894;6.040;2022-07-18T16:50:00;28.30;79.30